sensor_id;sensor_type;location;lat;lon;timestamp;pressure;altitude;pressure_sealevel;temperature;humidity
6506;BME280;3286;49.858;8.768;2023-07-29T00:00:12;98627.50;;;21.54;59.93
6506;BME280;3286;49.858;8.768;2023-07-29T00:02:39;98618.19;;;21.21;60.99
6506;BME280;3286;49.858;8.768;2023-07-29T00:05:07;98607.47;;;21.62;59.79
6506;BME280;3286;49.858;8.768;2023-07-29T00:07:34;98609.91;;;21.10;61.85
6506;BME280;3286;49.858;8.768;2023-07-29T00:10:01;98617.34;;;21.44;60.95
6506;BME280;3286;49.858;8.768;2023-07-29T00:12:28;98613.97;;;21.37;61.01
6506;BME280;3286;49.858;8.768;2023-07-29T00:14:55;98624.38;;;21.21;61.77
6506;BME280;3286;49.858;8.768;2023-07-29T00:17:22;98601.81;;;20.87;62.78
6506;BME280;3286;49.858;8.768;2023-07-29T00:19:48;98608.84;;;20.88;62.93
6506;BME280;3286;49.858;8.768;2023-07-29T00:24:43;98602.19;;;21.14;62.10
6506;BME280;3286;49.858;8.768;2023-07-29T00:27:09;98595.75;;;21.27;61.66
6506;BME280;3286;49.858;8.768;2023-07-29T00:29:36;98613.25;;;21.41;61.07
6506;BME280;3286;49.858;8.768;2023-07-29T00:32:03;98603.41;;;21.59;60.35
6506;BME280;3286;49.858;8.768;2023-07-29T00:34:30;98602.16;;;21.26;61.52
6506;BME280;3286;49.858;8.768;2023-07-29T00:36:57;98597.34;;;21.52;60.72
6506;BME280;3286;49.858;8.768;2023-07-29T00:39:25;98599.00;;;21.29;61.59
6506;BME280;3286;49.858;8.768;2023-07-29T00:41:52;98596.88;;;21.67;60.87
6506;BME280;3286;49.858;8.768;2023-07-29T00:44:18;98583.81;;;21.47;61.00
6506;BME280;3286;49.858;8.768;2023-07-29T00:46:46;98573.53;;;21.44;61.09
6506;BME280;3286;49.858;8.768;2023-07-29T00:49:13;98572.44;;;21.56;60.58
6506;BME280;3286;49.858;8.768;2023-07-29T00:51:39;98578.16;;;20.95;62.85
6506;BME280;3286;49.858;8.768;2023-07-29T00:54:06;98567.41;;;21.60;61.07
6506;BME280;3286;49.858;8.768;2023-07-29T00:56:34;98569.00;;;21.20;62.58
6506;BME280;3286;49.858;8.768;2023-07-29T00:59:02;98573.34;;;20.86;63.75
6506;BME280;3286;49.858;8.768;2023-07-29T01:01:30;98575.66;;;20.70;64.35
6506;BME280;3286;49.858;8.768;2023-07-29T01:03:57;98571.94;;;20.95;63.72
6506;BME280;3286;49.858;8.768;2023-07-29T01:06:35;98578.09;;;21.19;62.83
6506;BME280;3286;49.858;8.768;2023-07-29T01:09:09;98574.88;;;21.05;63.24
6506;BME280;3286;49.858;8.768;2023-07-29T01:11:48;98572.19;;;20.93;63.75
6506;BME280;3286;49.858;8.768;2023-07-29T01:14:21;98565.53;;;21.08;63.44
6506;BME280;3286;49.858;8.768;2023-07-29T01:16:53;98558.25;;;21.20;62.85
6506;BME280;3286;49.858;8.768;2023-07-29T01:19:40;98559.06;;;21.45;62.34
6506;BME280;3286;49.858;8.768;2023-07-29T01:22:09;98552.97;;;21.37;62.13
6506;BME280;3286;49.858;8.768;2023-07-29T01:24:38;98554.69;;;21.67;61.12
6506;BME280;3286;49.858;8.768;2023-07-29T01:27:05;98560.75;;;21.63;61.20
6506;BME280;3286;49.858;8.768;2023-07-29T01:29:32;98561.38;;;21.65;60.89
6506;BME280;3286;49.858;8.768;2023-07-29T01:32:03;98568.84;;;21.92;60.39
6506;BME280;3286;49.858;8.768;2023-07-29T01:34:38;98565.66;;;21.95;60.18
6506;BME280;3286;49.858;8.768;2023-07-29T01:37:07;98559.94;;;22.03;60.00
6506;BME280;3286;49.858;8.768;2023-07-29T01:39:37;98563.41;;;22.04;60.02
6506;BME280;3286;49.858;8.768;2023-07-29T01:42:04;98556.28;;;22.09;59.94
6506;BME280;3286;49.858;8.768;2023-07-29T01:44:32;98554.22;;;21.99;60.17
6506;BME280;3286;49.858;8.768;2023-07-29T01:47:00;98545.03;;;21.83;60.73
6506;BME280;3286;49.858;8.768;2023-07-29T01:49:27;98542.22;;;21.90;60.24
6506;BME280;3286;49.858;8.768;2023-07-29T01:51:53;98540.09;;;21.92;60.43
6506;BME280;3286;49.858;8.768;2023-07-29T01:54:20;98536.53;;;22.04;59.97
6506;BME280;3286;49.858;8.768;2023-07-29T01:56:48;98530.16;;;21.93;60.13
6506;BME280;3286;49.858;8.768;2023-07-29T01:59:16;98520.97;;;21.77;60.01
6506;BME280;3286;49.858;8.768;2023-07-29T02:01:43;98531.81;;;22.11;59.08
6506;BME280;3286;49.858;8.768;2023-07-29T02:04:11;98527.19;;;21.77;60.04
6506;BME280;3286;49.858;8.768;2023-07-29T02:06:38;98532.16;;;21.85;59.90
6506;BME280;3286;49.858;8.768;2023-07-29T02:09:05;98530.81;;;21.83;60.14
6506;BME280;3286;49.858;8.768;2023-07-29T02:11:31;98528.47;;;22.04;59.53
6506;BME280;3286;49.858;8.768;2023-07-29T02:13:59;98528.31;;;22.10;59.06
6506;BME280;3286;49.858;8.768;2023-07-29T02:16:26;98521.56;;;21.79;60.27
6506;BME280;3286;49.858;8.768;2023-07-29T02:18:53;98520.59;;;21.56;61.22
6506;BME280;3286;49.858;8.768;2023-07-29T02:21:19;98527.22;;;21.24;61.94
6506;BME280;3286;49.858;8.768;2023-07-29T02:23:46;98515.78;;;21.58;61.06
6506;BME280;3286;49.858;8.768;2023-07-29T02:26:13;98514.19;;;21.45;61.29
6506;BME280;3286;49.858;8.768;2023-07-29T02:28:39;98519.75;;;21.26;62.09
6506;BME280;3286;49.858;8.768;2023-07-29T02:31:14;98518.88;;;21.38;62.01
6506;BME280;3286;49.858;8.768;2023-07-29T02:33:41;98523.88;;;21.46;61.92
6506;BME280;3286;49.858;8.768;2023-07-29T02:36:07;98520.00;;;21.66;61.12
6506;BME280;3286;49.858;8.768;2023-07-29T02:38:34;98518.59;;;21.92;60.62
6506;BME280;3286;49.858;8.768;2023-07-29T02:41:01;98513.97;;;21.76;61.07
6506;BME280;3286;49.858;8.768;2023-07-29T02:43:27;98511.84;;;22.07;60.02
6506;BME280;3286;49.858;8.768;2023-07-29T02:45:54;98505.97;;;22.27;59.72
6506;BME280;3286;49.858;8.768;2023-07-29T02:48:22;98511.50;;;22.20;59.93
6506;BME280;3286;49.858;8.768;2023-07-29T02:50:49;98509.75;;;22.60;58.81
6506;BME280;3286;49.858;8.768;2023-07-29T02:53:15;98509.50;;;22.27;59.65
6506;BME280;3286;49.858;8.768;2023-07-29T02:55:42;98508.09;;;22.25;59.88
6506;BME280;3286;49.858;8.768;2023-07-29T02:58:08;98497.41;;;22.13;60.16
6506;BME280;3286;49.858;8.768;2023-07-29T03:00:35;98502.31;;;22.16;60.05
6506;BME280;3286;49.858;8.768;2023-07-29T03:03:02;98491.81;;;22.32;59.46
6506;BME280;3286;49.858;8.768;2023-07-29T03:05:30;98499.91;;;21.85;61.12
6506;BME280;3286;49.858;8.768;2023-07-29T03:07:57;98501.00;;;22.19;60.06
6506;BME280;3286;49.858;8.768;2023-07-29T03:10:24;98502.00;;;22.29;59.81
6506;BME280;3286;49.858;8.768;2023-07-29T03:12:53;98501.22;;;22.00;60.28
6506;BME280;3286;49.858;8.768;2023-07-29T03:15:23;98493.00;;;22.07;60.12
6506;BME280;3286;49.858;8.768;2023-07-29T03:17:50;98492.53;;;22.44;59.19
6506;BME280;3286;49.858;8.768;2023-07-29T03:20:19;98490.31;;;22.07;60.12
6506;BME280;3286;49.858;8.768;2023-07-29T03:22:47;98473.94;;;21.91;60.22
6506;BME280;3286;49.858;8.768;2023-07-29T03:25:14;98469.88;;;22.06;59.64
6506;BME280;3286;49.858;8.768;2023-07-29T03:27:40;98475.31;;;21.94;60.34
6506;BME280;3286;49.858;8.768;2023-07-29T03:30:07;98479.63;;;21.95;60.24
6506;BME280;3286;49.858;8.768;2023-07-29T03:32:34;98477.03;;;22.00;59.97
6506;BME280;3286;49.858;8.768;2023-07-29T03:35:01;98469.78;;;22.18;59.31
6506;BME280;3286;49.858;8.768;2023-07-29T03:37:27;98470.84;;;22.17;59.38
6506;BME280;3286;49.858;8.768;2023-07-29T03:39:55;98460.69;;;22.53;58.09
6506;BME280;3286;49.858;8.768;2023-07-29T03:42:22;98467.84;;;22.47;58.18
6506;BME280;3286;49.858;8.768;2023-07-29T03:44:49;98460.88;;;22.34;58.59
6506;BME280;3286;49.858;8.768;2023-07-29T03:47:15;98462.03;;;22.21;58.61
6506;BME280;3286;49.858;8.768;2023-07-29T03:49:42;98465.56;;;22.22;58.94
6506;BME280;3286;49.858;8.768;2023-07-29T03:52:09;98469.16;;;22.10;58.87
6506;BME280;3286;49.858;8.768;2023-07-29T03:54:35;98472.91;;;22.26;58.59
6506;BME280;3286;49.858;8.768;2023-07-29T03:57:04;98469.94;;;22.28;58.57
6506;BME280;3286;49.858;8.768;2023-07-29T03:59:30;98463.59;;;22.34;58.14
6506;BME280;3286;49.858;8.768;2023-07-29T04:01:57;98458.84;;;22.41;57.84
6506;BME280;3286;49.858;8.768;2023-07-29T04:04:24;98460.31;;;22.15;58.83
6506;BME280;3286;49.858;8.768;2023-07-29T04:06:50;98457.91;;;22.31;58.27
6506;BME280;3286;49.858;8.768;2023-07-29T04:09:17;98457.75;;;22.03;59.38
6506;BME280;3286;49.858;8.768;2023-07-29T04:11:44;98461.16;;;22.16;59.10
6506;BME280;3286;49.858;8.768;2023-07-29T04:14:12;98455.34;;;21.90;60.18
6506;BME280;3286;49.858;8.768;2023-07-29T04:16:38;98457.47;;;21.30;62.21
6506;BME280;3286;49.858;8.768;2023-07-29T04:19:06;98465.66;;;21.64;61.14
6506;BME280;3286;49.858;8.768;2023-07-29T04:21:33;98470.59;;;21.84;60.62
6506;BME280;3286;49.858;8.768;2023-07-29T04:23:59;98473.84;;;21.86;60.43
6506;BME280;3286;49.858;8.768;2023-07-29T04:26:26;98461.28;;;21.92;60.21
6506;BME280;3286;49.858;8.768;2023-07-29T04:28:53;98459.69;;;22.25;59.48
6506;BME280;3286;49.858;8.768;2023-07-29T04:31:21;98455.94;;;22.09;59.73
6506;BME280;3286;49.858;8.768;2023-07-29T04:33:48;98465.06;;;22.08;59.94
6506;BME280;3286;49.858;8.768;2023-07-29T04:36:14;98462.59;;;21.60;61.19
6506;BME280;3286;49.858;8.768;2023-07-29T04:38:41;98458.19;;;21.66;61.33
6506;BME280;3286;49.858;8.768;2023-07-29T04:41:07;98452.09;;;21.88;60.61
6506;BME280;3286;49.858;8.768;2023-07-29T04:43:34;98457.72;;;21.86;60.78
6506;BME280;3286;49.858;8.768;2023-07-29T04:46:01;98458.59;;;21.75;60.93
6506;BME280;3286;49.858;8.768;2023-07-29T04:48:29;98458.28;;;21.71;61.57
6506;BME280;3286;49.858;8.768;2023-07-29T04:50:56;98449.81;;;21.96;60.54
6506;BME280;3286;49.858;8.768;2023-07-29T04:53:22;98445.03;;;22.16;59.86
6506;BME280;3286;49.858;8.768;2023-07-29T04:55:49;98449.19;;;22.23;59.86
6506;BME280;3286;49.858;8.768;2023-07-29T04:58:16;98448.69;;;21.92;60.92
6506;BME280;3286;49.858;8.768;2023-07-29T05:00:42;98447.78;;;22.21;59.86
6506;BME280;3286;49.858;8.768;2023-07-29T05:03:09;98444.75;;;22.51;58.74
6506;BME280;3286;49.858;8.768;2023-07-29T05:05:37;98456.56;;;22.67;58.44
6506;BME280;3286;49.858;8.768;2023-07-29T05:08:04;98461.53;;;22.58;58.83
6506;BME280;3286;49.858;8.768;2023-07-29T05:10:31;98460.41;;;22.37;59.27
6506;BME280;3286;49.858;8.768;2023-07-29T05:12:57;98458.88;;;22.24;59.58
6506;BME280;3286;49.858;8.768;2023-07-29T05:15:24;98460.75;;;22.24;60.05
6506;BME280;3286;49.858;8.768;2023-07-29T05:17:51;98460.41;;;22.37;59.42
6506;BME280;3286;49.858;8.768;2023-07-29T05:20:17;98452.34;;;22.20;60.08
6506;BME280;3286;49.858;8.768;2023-07-29T05:22:45;98444.94;;;21.93;60.58
6506;BME280;3286;49.858;8.768;2023-07-29T05:25:12;98444.94;;;22.10;60.34
6506;BME280;3286;49.858;8.768;2023-07-29T05:27:38;98452.31;;;22.37;59.56
6506;BME280;3286;49.858;8.768;2023-07-29T05:30:07;98456.84;;;22.49;59.26
6506;BME280;3286;49.858;8.768;2023-07-29T05:32:33;98464.91;;;22.32;59.71
6506;BME280;3286;49.858;8.768;2023-07-29T05:35:00;98470.84;;;22.34;59.79
6506;BME280;3286;49.858;8.768;2023-07-29T05:37:27;98479.97;;;22.16;60.39
6506;BME280;3286;49.858;8.768;2023-07-29T05:39:55;98485.09;;;22.34;60.03
6506;BME280;3286;49.858;8.768;2023-07-29T05:42:21;98474.09;;;22.02;60.97
6506;BME280;3286;49.858;8.768;2023-07-29T05:44:48;98473.63;;;22.22;60.41
6506;BME280;3286;49.858;8.768;2023-07-29T05:47:15;98472.16;;;22.14;60.46
6506;BME280;3286;49.858;8.768;2023-07-29T05:49:41;98465.72;;;22.15;60.82
6506;BME280;3286;49.858;8.768;2023-07-29T05:52:08;98465.72;;;22.49;59.77
6506;BME280;3286;49.858;8.768;2023-07-29T05:54:34;98465.63;;;22.27;60.09
6506;BME280;3286;49.858;8.768;2023-07-29T05:57:03;98469.16;;;22.27;60.45
6506;BME280;3286;49.858;8.768;2023-07-29T05:59:30;98476.88;;;22.07;60.58
6506;BME280;3286;49.858;8.768;2023-07-29T06:01:56;98481.94;;;22.54;59.56
6506;BME280;3286;49.858;8.768;2023-07-29T06:04:23;98481.69;;;22.73;59.09
6506;BME280;3286;49.858;8.768;2023-07-29T06:06:50;98488.44;;;22.41;59.58
6506;BME280;3286;49.858;8.768;2023-07-29T06:09:16;98481.84;;;22.32;60.44
6506;BME280;3286;49.858;8.768;2023-07-29T06:11:43;98485.75;;;22.41;59.77
6506;BME280;3286;49.858;8.768;2023-07-29T06:14:11;98479.56;;;22.24;60.20
6506;BME280;3286;49.858;8.768;2023-07-29T06:16:38;98481.94;;;22.37;60.10
6506;BME280;3286;49.858;8.768;2023-07-29T06:19:05;98485.78;;;22.24;60.32
6506;BME280;3286;49.858;8.768;2023-07-29T06:21:34;98488.06;;;22.33;60.38
6506;BME280;3286;49.858;8.768;2023-07-29T06:24:00;98493.13;;;22.46;60.03
6506;BME280;3286;49.858;8.768;2023-07-29T06:26:27;98485.53;;;22.26;60.70
6506;BME280;3286;49.858;8.768;2023-07-29T06:28:54;98478.25;;;22.61;59.50
6506;BME280;3286;49.858;8.768;2023-07-29T06:31:22;98480.13;;;22.43;60.23
6506;BME280;3286;49.858;8.768;2023-07-29T06:33:48;98479.22;;;22.37;60.60
6506;BME280;3286;49.858;8.768;2023-07-29T06:36:15;98480.69;;;22.45;60.49
6506;BME280;3286;49.858;8.768;2023-07-29T06:38:42;98487.03;;;22.90;59.48
6506;BME280;3286;49.858;8.768;2023-07-29T06:41:08;98493.50;;;22.38;61.67
6506;BME280;3286;49.858;8.768;2023-07-29T06:43:35;98482.69;;;22.67;61.48
6506;BME280;3286;49.858;8.768;2023-07-29T06:46:02;98485.28;;;22.45;61.84
6506;BME280;3286;49.858;8.768;2023-07-29T06:48:30;98496.69;;;22.00;63.30
6506;BME280;3286;49.858;8.768;2023-07-29T06:50:56;98500.13;;;22.47;62.11
6506;BME280;3286;49.858;8.768;2023-07-29T06:53:26;98505.25;;;22.14;63.49
6506;BME280;3286;49.858;8.768;2023-07-29T06:55:52;98501.66;;;22.26;63.20
6506;BME280;3286;49.858;8.768;2023-07-29T06:58:19;98508.34;;;22.57;61.87
6506;BME280;3286;49.858;8.768;2023-07-29T07:00:45;98486.09;;;22.62;61.86
6506;BME280;3286;49.858;8.768;2023-07-29T07:03:12;98488.66;;;22.52;61.95
6506;BME280;3286;49.858;8.768;2023-07-29T07:05:40;98495.13;;;22.05;63.65
6506;BME280;3286;49.858;8.768;2023-07-29T07:08:07;98504.66;;;21.66;64.79
6506;BME280;3286;49.858;8.768;2023-07-29T07:10:33;98521.47;;;21.74;64.99
6506;BME280;3286;49.858;8.768;2023-07-29T07:13:00;98525.34;;;21.95;64.17
6506;BME280;3286;49.858;8.768;2023-07-29T07:15:27;98531.66;;;21.71;64.91
6506;BME280;3286;49.858;8.768;2023-07-29T07:17:53;98530.88;;;21.47;65.47
6506;BME280;3286;49.858;8.768;2023-07-29T07:20:20;98509.59;;;21.17;67.24
6506;BME280;3286;49.858;8.768;2023-07-29T07:22:48;98481.16;;;21.62;65.72
6506;BME280;3286;49.858;8.768;2023-07-29T07:25:15;98492.25;;;21.77;64.91
6506;BME280;3286;49.858;8.768;2023-07-29T07:27:41;98484.19;;;21.36;66.28
6506;BME280;3286;49.858;8.768;2023-07-29T07:30:09;98489.06;;;21.39;65.83
6506;BME280;3286;49.858;8.768;2023-07-29T07:32:35;98496.03;;;21.52;64.95
6506;BME280;3286;49.858;8.768;2023-07-29T07:35:03;98512.50;;;21.68;63.72
6506;BME280;3286;49.858;8.768;2023-07-29T07:37:30;98501.91;;;21.49;63.75
6506;BME280;3286;49.858;8.768;2023-07-29T07:39:58;98503.66;;;21.84;62.43
6506;BME280;3286;49.858;8.768;2023-07-29T07:42:25;98514.91;;;21.81;62.63
6506;BME280;3286;49.858;8.768;2023-07-29T07:44:52;98531.66;;;21.07;63.69
6506;BME280;3286;49.858;8.768;2023-07-29T07:47:18;98545.84;;;21.43;62.79
6506;BME280;3286;49.858;8.768;2023-07-29T07:49:45;98538.38;;;21.33;61.94
6506;BME280;3286;49.858;8.768;2023-07-29T07:52:11;98547.00;;;21.47;62.13
6506;BME280;3286;49.858;8.768;2023-07-29T07:54:38;98536.69;;;21.68;61.35
6506;BME280;3286;49.858;8.768;2023-07-29T07:57:06;98540.19;;;21.68;61.66
6506;BME280;3286;49.858;8.768;2023-07-29T07:59:33;98548.38;;;20.97;63.61
6506;BME280;3286;49.858;8.768;2023-07-29T08:01:59;98547.78;;;21.07;62.80
6506;BME280;3286;49.858;8.768;2023-07-29T08:04:27;98549.56;;;21.01;63.88
6506;BME280;3286;49.858;8.768;2023-07-29T08:06:54;98555.63;;;20.30;65.36
6506;BME280;3286;49.858;8.768;2023-07-29T08:09:20;98547.63;;;20.42;65.13
6506;BME280;3286;49.858;8.768;2023-07-29T08:11:47;98542.16;;;20.73;63.90
6506;BME280;3286;49.858;8.768;2023-07-29T08:14:15;98543.81;;;20.97;63.17
6506;BME280;3286;49.858;8.768;2023-07-29T08:16:42;98548.63;;;20.29;65.08
6506;BME280;3286;49.858;8.768;2023-07-29T08:19:08;98548.38;;;20.19;65.42
6506;BME280;3286;49.858;8.768;2023-07-29T08:21:35;98545.06;;;20.05;65.54
6506;BME280;3286;49.858;8.768;2023-07-29T08:24:02;98546.19;;;20.39;64.48
6506;BME280;3286;49.858;8.768;2023-07-29T08:26:29;98536.19;;;20.70;64.45
6506;BME280;3286;49.858;8.768;2023-07-29T08:28:55;98537.28;;;20.93;63.53
6506;BME280;3286;49.858;8.768;2023-07-29T08:31:23;98541.47;;;21.13;63.55
6506;BME280;3286;49.858;8.768;2023-07-29T08:33:50;98548.16;;;21.51;62.06
6506;BME280;3286;49.858;8.768;2023-07-29T08:36:17;98558.44;;;21.66;62.05
6506;BME280;3286;49.858;8.768;2023-07-29T08:38:44;98556.28;;;21.80;62.02
6506;BME280;3286;49.858;8.768;2023-07-29T08:41:14;98543.06;;;22.08;61.28
6506;BME280;3286;49.858;8.768;2023-07-29T08:43:48;98549.97;;;22.04;62.94
6506;BME280;3286;49.858;8.768;2023-07-29T08:46:17;98553.97;;;22.64;60.64
6506;BME280;3286;49.858;8.768;2023-07-29T08:48:47;98552.59;;;22.16;62.54
6506;BME280;3286;49.858;8.768;2023-07-29T08:51:15;98560.22;;;22.36;62.27
6506;BME280;3286;49.858;8.768;2023-07-29T08:53:43;98553.56;;;22.55;61.15
6506;BME280;3286;49.858;8.768;2023-07-29T08:56:13;98546.50;;;22.37;61.58
6506;BME280;3286;49.858;8.768;2023-07-29T08:58:41;98541.56;;;22.63;61.28
6506;BME280;3286;49.858;8.768;2023-07-29T09:01:08;98551.13;;;22.71;61.55
6506;BME280;3286;49.858;8.768;2023-07-29T09:03:36;98546.34;;;22.95;59.97
6506;BME280;3286;49.858;8.768;2023-07-29T09:06:05;98548.22;;;22.95;59.75
6506;BME280;3286;49.858;8.768;2023-07-29T09:08:33;98545.78;;;23.33;58.22
6506;BME280;3286;49.858;8.768;2023-07-29T09:11:00;98551.28;;;22.47;58.10
6506;BME280;3286;49.858;8.768;2023-07-29T09:13:28;98542.69;;;22.67;56.64
6506;BME280;3286;49.858;8.768;2023-07-29T09:15:57;98545.91;;;23.04;54.88
6506;BME280;3286;49.858;8.768;2023-07-29T09:18:26;98551.97;;;23.33;54.57
6506;BME280;3286;49.858;8.768;2023-07-29T09:20:53;98548.69;;;22.06;58.04
6506;BME280;3286;49.858;8.768;2023-07-29T09:23:21;98546.59;;;22.25;58.22
6506;BME280;3286;49.858;8.768;2023-07-29T09:25:48;98557.81;;;23.08;54.26
6506;BME280;3286;49.858;8.768;2023-07-29T09:28:16;98560.97;;;22.82;55.95
6506;BME280;3286;49.858;8.768;2023-07-29T09:30:46;98564.72;;;23.21;54.42
6506;BME280;3286;49.858;8.768;2023-07-29T09:33:13;98572.91;;;23.26;54.33
6506;BME280;3286;49.858;8.768;2023-07-29T09:35:40;98572.03;;;23.42;53.41
6506;BME280;3286;49.858;8.768;2023-07-29T09:38:07;98567.06;;;23.79;52.66
6506;BME280;3286;49.858;8.768;2023-07-29T09:40:36;98557.34;;;23.78;52.78
6506;BME280;3286;49.858;8.768;2023-07-29T09:43:04;98558.00;;;23.40;54.25
6506;BME280;3286;49.858;8.768;2023-07-29T09:45:33;98560.38;;;23.37;54.57
6506;BME280;3286;49.858;8.768;2023-07-29T09:48:00;98564.38;;;23.79;52.84
6506;BME280;3286;49.858;8.768;2023-07-29T09:50:27;98560.06;;;24.65;51.11
6506;BME280;3286;49.858;8.768;2023-07-29T09:52:55;98560.72;;;24.78;50.28
6506;BME280;3286;49.858;8.768;2023-07-29T09:55:24;98550.53;;;24.20;50.64
6506;BME280;3286;49.858;8.768;2023-07-29T09:57:56;98551.25;;;25.23;48.80
6506;BME280;3286;49.858;8.768;2023-07-29T10:00:25;98545.59;;;24.11;50.61
6506;BME280;3286;49.858;8.768;2023-07-29T10:02:51;98545.19;;;24.63;49.29
6506;BME280;3286;49.858;8.768;2023-07-29T10:05:21;98532.88;;;25.25;48.65
6506;BME280;3286;49.858;8.768;2023-07-29T10:07:49;98537.31;;;23.96;51.81
6506;BME280;3286;49.858;8.768;2023-07-29T10:10:16;98528.69;;;24.97;49.35
6506;BME280;3286;49.858;8.768;2023-07-29T10:12:43;98539.97;;;24.18;52.38
6506;BME280;3286;49.858;8.768;2023-07-29T10:15:12;98522.81;;;25.89;48.73
6506;BME280;3286;49.858;8.768;2023-07-29T10:17:39;98521.53;;;26.34;47.84
6506;BME280;3286;49.858;8.768;2023-07-29T10:20:08;98518.28;;;26.26;47.50
6506;BME280;3286;49.858;8.768;2023-07-29T10:22:38;98512.84;;;26.26;46.92
6506;BME280;3286;49.858;8.768;2023-07-29T10:25:08;98518.00;;;26.43;47.52
6506;BME280;3286;49.858;8.768;2023-07-29T10:27:42;98511.09;;;27.18;45.65
6506;BME280;3286;49.858;8.768;2023-07-29T10:30:12;98511.28;;;27.32;45.45
6506;BME280;3286;49.858;8.768;2023-07-29T10:32:42;98520.00;;;27.35;45.70
6506;BME280;3286;49.858;8.768;2023-07-29T10:35:10;98521.63;;;27.36;45.47
6506;BME280;3286;49.858;8.768;2023-07-29T10:37:37;98524.63;;;27.24;45.39
6506;BME280;3286;49.858;8.768;2023-07-29T10:40:06;98518.97;;;25.65;47.92
6506;BME280;3286;49.858;8.768;2023-07-29T10:42:33;98524.50;;;26.53;47.88
6506;BME280;3286;49.858;8.768;2023-07-29T10:45:19;98521.59;;;27.41;44.15
6506;BME280;3286;49.858;8.768;2023-07-29T10:47:46;98516.53;;;27.08;45.04
6506;BME280;3286;49.858;8.768;2023-07-29T10:50:18;98513.38;;;27.56;45.06
6506;BME280;3286;49.858;8.768;2023-07-29T10:52:49;98517.28;;;27.85;45.54
6506;BME280;3286;49.858;8.768;2023-07-29T10:57:51;98493.72;;;28.49;42.17
6506;BME280;3286;49.858;8.768;2023-07-29T11:00:20;98495.25;;;27.91;44.29
6506;BME280;3286;49.858;8.768;2023-07-29T11:02:58;98496.59;;;27.94;43.96
6506;BME280;3286;49.858;8.768;2023-07-29T11:05:41;98488.69;;;28.38;43.30
6506;BME280;3286;49.858;8.768;2023-07-29T11:08:16;98484.28;;;27.72;44.28
6506;BME280;3286;49.858;8.768;2023-07-29T11:10:43;98491.13;;;26.83;45.97
6506;BME280;3286;49.858;8.768;2023-07-29T11:13:10;98489.06;;;28.26;42.81
6506;BME280;3286;49.858;8.768;2023-07-29T11:15:39;98480.88;;;28.31;42.48
6506;BME280;3286;49.858;8.768;2023-07-29T11:18:06;98472.00;;;28.74;41.63
6506;BME280;3286;49.858;8.768;2023-07-29T11:20:34;98478.25;;;28.50;42.80
6506;BME280;3286;49.858;8.768;2023-07-29T11:23:02;98469.16;;;28.36;42.92
6506;BME280;3286;49.858;8.768;2023-07-29T11:25:30;98458.16;;;28.22;42.42
6506;BME280;3286;49.858;8.768;2023-07-29T11:27:59;98465.09;;;28.87;41.90
6506;BME280;3286;49.858;8.768;2023-07-29T11:30:26;98462.38;;;28.33;42.07
6506;BME280;3286;49.858;8.768;2023-07-29T11:32:56;98450.34;;;28.93;39.93
6506;BME280;3286;49.858;8.768;2023-07-29T11:35:24;98437.81;;;29.35;38.56
6506;BME280;3286;49.858;8.768;2023-07-29T11:37:53;98452.88;;;29.09;40.81
6506;BME280;3286;49.858;8.768;2023-07-29T11:40:22;98444.00;;;29.22;40.25
6506;BME280;3286;49.858;8.768;2023-07-29T11:42:50;98454.56;;;29.67;39.71
6506;BME280;3286;49.858;8.768;2023-07-29T11:45:18;98450.25;;;29.03;40.13
6506;BME280;3286;49.858;8.768;2023-07-29T11:47:45;98444.41;;;29.10;39.41
6506;BME280;3286;49.858;8.768;2023-07-29T11:50:14;98442.84;;;28.31;40.90
6506;BME280;3286;49.858;8.768;2023-07-29T11:52:42;98454.03;;;27.44;43.60
6506;BME280;3286;49.858;8.768;2023-07-29T11:55:09;98439.03;;;27.62;42.45
6506;BME280;3286;49.858;8.768;2023-07-29T11:57:37;98442.22;;;26.17;45.34
6506;BME280;3286;49.858;8.768;2023-07-29T12:00:05;98451.41;;;27.29;43.66
6506;BME280;3286;49.858;8.768;2023-07-29T12:02:33;98444.47;;;27.97;41.19
6506;BME280;3286;49.858;8.768;2023-07-29T12:05:03;98440.97;;;27.91;41.14
6506;BME280;3286;49.858;8.768;2023-07-29T12:07:32;98439.13;;;28.75;39.90
6506;BME280;3286;49.858;8.768;2023-07-29T12:10:00;98443.69;;;27.57;40.96
6506;BME280;3286;49.858;8.768;2023-07-29T12:12:28;98442.09;;;28.79;39.09
6506;BME280;3286;49.858;8.768;2023-07-29T12:14:55;98440.50;;;28.73;39.49
6506;BME280;3286;49.858;8.768;2023-07-29T12:17:21;98433.28;;;28.63;37.98
6506;BME280;3286;49.858;8.768;2023-07-29T12:19:48;98446.94;;;27.59;39.51
6506;BME280;3286;49.858;8.768;2023-07-29T12:22:18;98430.03;;;27.67;39.05
6506;BME280;3286;49.858;8.768;2023-07-29T12:24:47;98436.56;;;28.36;37.10
6506;BME280;3286;49.858;8.768;2023-07-29T12:27:14;98437.34;;;28.07;36.80
6506;BME280;3286;49.858;8.768;2023-07-29T12:29:43;98440.25;;;27.30;37.86
6506;BME280;3286;49.858;8.768;2023-07-29T12:32:11;98443.03;;;26.18;40.70
6506;BME280;3286;49.858;8.768;2023-07-29T12:34:39;98436.97;;;26.73;39.88
6506;BME280;3286;49.858;8.768;2023-07-29T12:37:07;98434.66;;;27.16;37.95
6506;BME280;3286;49.858;8.768;2023-07-29T12:39:35;98437.75;;;26.84;38.71
6506;BME280;3286;49.858;8.768;2023-07-29T12:42:04;98446.06;;;27.08;39.22
6506;BME280;3286;49.858;8.768;2023-07-29T12:44:33;98436.84;;;27.09;37.43
6506;BME280;3286;49.858;8.768;2023-07-29T12:47:00;98431.63;;;25.74;39.98
6506;BME280;3286;49.858;8.768;2023-07-29T12:49:28;98428.72;;;27.94;37.20
6506;BME280;3286;49.858;8.768;2023-07-29T12:51:55;98428.38;;;27.71;36.56
6506;BME280;3286;49.858;8.768;2023-07-29T12:54:22;98440.22;;;26.70;37.28
6506;BME280;3286;49.858;8.768;2023-07-29T12:56:48;98428.94;;;25.90;39.02
6506;BME280;3286;49.858;8.768;2023-07-29T12:59:17;98431.94;;;27.22;36.34
6506;BME280;3286;49.858;8.768;2023-07-29T13:01:44;98432.41;;;28.43;34.73
6506;BME280;3286;49.858;8.768;2023-07-29T13:04:11;98442.91;;;27.51;35.39
6506;BME280;3286;49.858;8.768;2023-07-29T13:06:38;98439.00;;;26.15;37.54
6506;BME280;3286;49.858;8.768;2023-07-29T13:09:05;98441.97;;;27.16;36.20
6506;BME280;3286;49.858;8.768;2023-07-29T13:11:31;98426.88;;;27.89;34.87
6506;BME280;3286;49.858;8.768;2023-07-29T13:13:59;98436.53;;;26.09;37.03
6506;BME280;3286;49.858;8.768;2023-07-29T13:16:29;98431.91;;;25.99;37.43
6506;BME280;3286;49.858;8.768;2023-07-29T13:18:55;98442.44;;;27.28;35.79
6506;BME280;3286;49.858;8.768;2023-07-29T13:21:22;98431.66;;;28.03;34.04
6506;BME280;3286;49.858;8.768;2023-07-29T13:23:49;98424.41;;;27.58;34.04
6506;BME280;3286;49.858;8.768;2023-07-29T13:26:16;98440.50;;;27.39;33.46
6506;BME280;3286;49.858;8.768;2023-07-29T13:28:43;98421.38;;;28.29;33.25